createdAt,value
2018-07-25T00:00:49.982Z,19.36
2018-07-25T00:02:50.243Z,19.36
2018-07-25T00:04:49.860Z,19.29
2018-07-25T00:06:50.263Z,19.26
2018-07-25T00:08:50.609Z,19.19
2018-07-25T00:10:49.879Z,19.17
2018-07-25T00:12:50.381Z,19.16
2018-07-25T00:14:50.622Z,19.12
2018-07-25T00:16:50.051Z,19.08
2018-07-25T00:18:50.184Z,19.09
2018-07-25T00:20:50.456Z,19.13
2018-07-25T00:22:50.608Z,19.11
2018-07-25T00:24:50.858Z,19.06
2018-07-25T00:26:50.460Z,19.02
2018-07-25T00:28:50.684Z,19.01
2018-07-25T00:30:49.865Z,18.99
2018-07-25T00:32:50.174Z,18.97
2018-07-25T00:34:50.831Z,18.94
2018-07-25T00:36:50.126Z,18.90
2018-07-25T00:38:50.327Z,18.89
2018-07-25T00:40:50.630Z,18.88
2018-07-25T00:42:50.827Z,18.85
2018-07-25T00:44:50.031Z,18.84
2018-07-25T00:46:50.561Z,18.82
2018-07-25T00:48:50.758Z,18.84
2018-07-25T00:50:49.922Z,18.84
2018-07-25T00:52:50.240Z,18.82
2018-07-25T00:54:50.403Z,18.79
2018-07-25T00:56:50.024Z,18.82
2018-07-25T00:58:50.363Z,18.84
2018-07-25T01:00:50.598Z,18.89
2018-07-25T01:02:50.776Z,18.89
2018-07-25T01:04:50.617Z,18.89
2018-07-25T01:06:50.102Z,18.89
2018-07-25T01:08:50.427Z,18.88
2018-07-25T01:10:50.638Z,18.94
2018-07-25T01:12:49.967Z,18.91
2018-07-25T01:14:50.148Z,18.83
2018-07-25T01:16:50.592Z,18.77
2018-07-25T01:18:49.936Z,18.69
2018-07-25T01:20:50.061Z,18.65
2018-07-25T01:22:50.248Z,18.57
2018-07-25T01:24:50.452Z,18.53
2018-07-25T01:26:50.318Z,18.47
2018-07-25T01:28:50.642Z,18.41
2018-07-25T01:30:49.875Z,18.33
2018-07-25T01:32:50.115Z,18.28
2018-07-25T01:34:50.571Z,18.23
2018-07-25T01:36:50.150Z,18.21
2018-07-25T01:38:50.501Z,18.17
2018-07-25T01:40:50.770Z,18.15
2018-07-25T01:42:49.997Z,18.11
2018-07-25T01:44:50.252Z,18.09
2018-07-25T01:46:50.772Z,18.04
2018-07-25T01:48:50.006Z,18.02
2018-07-25T01:50:50.214Z,17.97
2018-07-25T01:52:50.430Z,17.93
2018-07-25T01:54:50.819Z,17.88
2018-07-25T01:56:50.405Z,17.85
2018-07-25T01:58:50.574Z,17.82
2018-07-25T02:00:50.729Z,17.75
2018-07-25T02:02:49.929Z,17.71
2018-07-25T02:04:50.405Z,17.68
2018-07-25T02:06:49.926Z,17.67
2018-07-25T02:08:50.201Z,17.63
2018-07-25T02:10:50.470Z,17.58
2018-07-25T02:12:50.693Z,17.52
2018-07-25T02:14:49.885Z,17.49
2018-07-25T02:16:50.529Z,17.49
2018-07-25T02:18:50.783Z,17.43
2018-07-25T02:20:49.990Z,17.41
2018-07-25T02:22:50.111Z,17.34
2018-07-25T02:24:50.330Z,17.31
2018-07-25T02:26:50.773Z,17.28
2018-07-25T02:28:50.218Z,17.27
2018-07-25T02:30:50.447Z,17.27
2018-07-25T02:32:50.683Z,17.21
2018-07-25T02:34:50.355Z,17.19
2018-07-25T02:36:49.891Z,17.13
2018-07-25T02:38:50.123Z,17.11
2018-07-25T02:40:50.311Z,17.07
2018-07-25T02:42:50.613Z,17.00
2018-07-25T02:44:50.021Z,16.98
2018-07-25T02:46:50.681Z,16.93
2018-07-25T02:48:49.860Z,16.91
2018-07-25T02:50:50.153Z,16.89
2018-07-25T02:52:50.408Z,16.88
2018-07-25T02:54:50.607Z,16.87
2018-07-25T02:56:50.581Z,16.83
2018-07-25T02:58:49.922Z,16.81
2018-07-25T03:00:50.100Z,16.78
2018-07-25T03:02:50.479Z,16.77
2018-07-25T03:04:50.213Z,16.74
2018-07-25T03:06:50.709Z,16.72
2018-07-25T03:08:51.147Z,16.68
2018-07-25T03:10:50.469Z,16.67
2018-07-25T03:12:50.724Z,16.63
2018-07-25T03:14:50.024Z,16.61
2018-07-25T03:16:51.262Z,16.58
2018-07-25T03:18:50.704Z,16.56
2018-07-25T03:20:49.943Z,16.53
2018-07-25T03:22:50.289Z,16.50
2018-07-25T03:24:50.512Z,16.50
2018-07-25T03:26:50.147Z,16.43
2018-07-25T03:28:50.462Z,16.42
2018-07-25T03:30:50.810Z,16.42
2018-07-25T03:32:49.884Z,16.39
2018-07-25T03:34:50.700Z,16.36
2018-07-25T03:36:50.190Z,16.33
2018-07-25T03:38:50.354Z,16.31
2018-07-25T03:40:50.550Z,16.30
2018-07-25T03:42:50.803Z,16.29
2018-07-25T03:44:49.984Z,16.27
2018-07-25T03:46:50.359Z,16.27
2018-07-25T03:48:50.695Z,16.22
2018-07-25T03:50:50.050Z,16.22
2018-07-25T03:52:50.307Z,16.21
2018-07-25T03:54:50.537Z,16.19
2018-07-25T03:56:50.145Z,16.16
2018-07-25T03:58:50.294Z,16.15
2018-07-25T04:00:50.474Z,16.15
2018-07-25T04:02:50.743Z,16.15
2018-07-25T04:04:50.289Z,16.14
2018-07-25T04:06:50.692Z,16.13
2018-07-25T04:08:50.011Z,16.14
2018-07-25T04:10:50.233Z,16.15
2018-07-25T04:12:50.543Z,16.16
2018-07-25T04:14:50.793Z,16.20
2018-07-25T04:16:50.306Z,16.21
2018-07-25T04:18:50.516Z,16.26
2018-07-25T04:20:49.880Z,16.28
2018-07-25T04:22:50.139Z,16.37
2018-07-25T04:24:50.811Z,16.43
2018-07-25T04:26:50.280Z,16.50
2018-07-25T04:28:50.516Z,16.56
2018-07-25T04:30:50.676Z,16.60
2018-07-25T04:32:49.850Z,16.70
2018-07-25T04:34:51.245Z,16.74
2018-07-25T04:36:49.904Z,16.89
2018-07-25T04:38:50.132Z,17.02
2018-07-25T04:40:50.303Z,17.08
2018-07-25T04:42:50.821Z,17.22
2018-07-25T04:44:50.004Z,17.31
2018-07-25T04:46:50.641Z,17.52
2018-07-25T04:48:50.842Z,17.71
2018-07-25T04:50:50.186Z,17.75
2018-07-25T04:52:50.454Z,17.94
2018-07-25T04:54:50.668Z,18.17
2018-07-25T04:56:50.182Z,18.35
2018-07-25T04:58:50.363Z,18.47
2018-07-25T05:00:50.770Z,18.58
2018-07-25T05:02:50.034Z,18.67
2018-07-25T05:04:50.675Z,18.71
2018-07-25T05:06:50.145Z,18.77
2018-07-25T05:08:50.404Z,18.89
2018-07-25T05:10:50.669Z,18.89
2018-07-25T05:12:49.960Z,19.08
2018-07-25T05:14:50.166Z,19.13
2018-07-25T05:16:50.639Z,19.15
2018-07-25T05:18:49.907Z,19.27
2018-07-25T05:20:50.073Z,19.34
2018-07-25T05:22:50.367Z,19.44
2018-07-25T05:24:50.591Z,19.49
2018-07-25T05:26:50.181Z,19.53
2018-07-25T05:28:50.426Z,19.64
2018-07-25T05:30:50.672Z,19.74
2018-07-25T05:32:50.846Z,19.83
2018-07-25T05:34:50.597Z,19.98
2018-07-25T05:36:50.768Z,20.08
2018-07-25T05:38:50.012Z,20.22
2018-07-25T05:40:50.248Z,20.32
2018-07-25T05:42:50.511Z,20.49
2018-07-25T05:44:50.763Z,20.64
2018-07-25T05:46:50.120Z,20.73
2018-07-25T05:48:50.481Z,20.85
2018-07-25T05:50:50.744Z,20.93
2018-07-25T05:52:50.822Z,21.12
2018-07-25T05:54:50.144Z,21.23
2018-07-25T05:56:51.246Z,21.54
2018-07-25T05:58:50.645Z,21.74
2018-07-25T06:00:50.230Z,21.86
2018-07-25T06:02:51.051Z,21.95
2018-07-25T06:04:50.874Z,22.18
2018-07-25T06:06:50.470Z,22.40
2018-07-25T06:08:50.716Z,22.42
2018-07-25T06:10:50.855Z,22.42
2018-07-25T06:12:50.686Z,22.38
2018-07-25T06:14:50.215Z,22.43
2018-07-25T06:16:50.713Z,22.45
2018-07-25T06:18:49.884Z,22.50
2018-07-25T06:20:50.308Z,22.68
2018-07-25T06:22:50.736Z,22.83
2018-07-25T06:24:50.882Z,22.96
2018-07-25T06:26:50.413Z,23.00
2018-07-25T06:28:50.643Z,23.02
2018-07-25T06:30:50.767Z,23.03
2018-07-25T06:32:49.911Z,23.00
2018-07-25T06:34:51.170Z,23.03
2018-07-25T06:36:50.730Z,23.06
2018-07-25T06:38:49.911Z,23.12
2018-07-25T06:40:50.159Z,23.16
2018-07-25T06:42:50.342Z,23.18
2018-07-25T06:44:50.710Z,23.37
2018-07-25T06:46:50.253Z,23.49
2018-07-25T06:48:50.366Z,23.49
2018-07-25T06:50:51.065Z,23.54
2018-07-25T06:52:50.477Z,23.63
2018-07-25T06:54:50.712Z,23.7
2018-07-25T06:56:50.063Z,23.68
2018-07-25T06:58:50.281Z,23.70
2018-07-25T07:00:50.492Z,23.77
2018-07-25T07:02:50.645Z,23.79
2018-07-25T07:04:50.359Z,23.8
2018-07-25T07:06:50.198Z,23.9
2018-07-25T07:08:50.408Z,23.9
2018-07-25T07:10:50.613Z,23.9
2018-07-25T07:12:49.924Z,24.0
2018-07-25T07:14:50.116Z,24.1
2018-07-25T07:16:50.544Z,24.1
2018-07-25T07:18:50.781Z,24.1
2018-07-25T07:20:49.877Z,24.2
2018-07-25T07:22:50.074Z,24.2
2018-07-25T07:24:50.453Z,24.3
2018-07-25T07:26:49.872Z,24.4
2018-07-25T07:28:50.052Z,24.4
2018-07-25T07:30:50.493Z,24.4
2018-07-25T07:32:50.646Z,24.5
2018-07-25T07:34:50.293Z,24.6
2018-07-25T07:36:50.769Z,24.7
2018-07-25T07:38:50.150Z,24.7
2018-07-25T07:40:50.343Z,24.7
2018-07-25T07:42:50.526Z,24.8
2018-07-25T07:44:50.754Z,24.8
2018-07-25T07:46:50.100Z,25.0
2018-07-25T07:48:50.251Z,25.0
2018-07-25T07:50:50.851Z,25.1
2018-07-25T07:52:50.133Z,25.2
2018-07-25T07:54:50.328Z,25.2
2018-07-25T07:56:50.761Z,25.3
2018-07-25T07:58:50.102Z,25.3
2018-07-25T08:00:50.265Z,25.4
2018-07-25T08:02:50.517Z,25.5
2018-07-25T08:04:50.308Z,25.4
2018-07-25T08:06:49.900Z,25.6
2018-07-25T08:08:50.226Z,25.6
2018-07-25T08:10:50.664Z,25.7
2018-07-25T08:12:50.315Z,25.8
2018-07-25T08:14:49.934Z,25.8
2018-07-25T08:16:50.782Z,25.9
2018-07-25T08:18:50.239Z,25.9
2018-07-25T08:20:50.702Z,26.0
2018-07-25T08:22:50.178Z,26.1
2018-07-25T08:24:50.361Z,26.2
2018-07-25T08:26:50.137Z,26.2
2018-07-25T08:28:50.340Z,26.2
2018-07-25T08:30:50.634Z,26.3
2018-07-25T08:32:49.897Z,26.4
2018-07-25T08:34:50.910Z,26.4
2018-07-25T08:36:50.381Z,26.5
2018-07-25T08:38:50.580Z,26.6
2018-07-25T08:40:50.766Z,26.6
2018-07-25T08:42:49.924Z,26.8
2018-07-25T08:44:50.229Z,26.8
2018-07-25T08:46:51.069Z,26.9
2018-07-25T08:48:50.328Z,26.9
2018-07-25T08:50:50.494Z,26.9
2018-07-25T08:52:51.277Z,27.0
2018-07-25T08:54:50.682Z,27.0
2018-07-25T08:56:50.185Z,27.1
2018-07-25T08:58:50.381Z,27.2
2018-07-25T09:00:50.546Z,27.3
2018-07-25T09:02:50.810Z,27.4
2018-07-25T09:04:50.492Z,27.4
2018-07-25T09:06:49.944Z,27.4
2018-07-25T09:08:50.118Z,27.6
2018-07-25T09:10:50.409Z,27.6
2018-07-25T09:12:51.734Z,27.7
2018-07-25T09:14:49.930Z,27.7
2018-07-25T09:16:50.941Z,27.8
2018-07-25T09:18:50.200Z,27.8
2018-07-25T09:20:50.365Z,27.9
2018-07-25T09:22:50.689Z,28.0
2018-07-25T09:24:49.896Z,28.0
2018-07-25T09:26:50.288Z,28.1
2018-07-25T09:28:50.720Z,28.1
2018-07-25T09:30:50.033Z,28.1
2018-07-25T09:32:52.746Z,28.2
2018-07-25T09:34:50.236Z,28.3
2018-07-25T09:36:50.815Z,28.4
2018-07-25T09:38:50.235Z,28.5
2018-07-25T09:40:51.001Z,28.5
2018-07-25T09:42:50.497Z,28.6
2018-07-25T09:44:50.979Z,28.6
2018-07-25T09:46:51.362Z,28.7
2018-07-25T09:48:50.914Z,28.7
2018-07-25T09:50:50.284Z,28.7
2018-07-25T09:52:50.895Z,28.8
2018-07-25T09:54:53.093Z,28.8
2018-07-25T09:56:50.733Z,29.0
2018-07-25T09:58:51.533Z,29.0
2018-07-25T10:00:50.290Z,29.0
2018-07-25T10:02:50.272Z,29.0
2018-07-25T10:04:50.139Z,29.1
2018-07-25T10:06:50.681Z,29.2
2018-07-25T10:08:49.977Z,29.2
2018-07-25T10:10:50.383Z,29.2
2018-07-25T10:12:50.687Z,29.2
2018-07-25T10:14:50.099Z,29.3
2018-07-25T10:16:52.274Z,29.4
2018-07-25T10:18:50.577Z,29.4
2018-07-25T10:20:51.933Z,29.4
2018-07-25T10:22:50.593Z,29.5
2018-07-25T10:24:52.717Z,29.6
2018-07-25T10:26:50.343Z,29.6
2018-07-25T10:28:50.846Z,29.6
2018-07-25T10:30:50.262Z,29.7
2018-07-25T10:32:51.027Z,29.8
2018-07-25T10:34:50.984Z,29.8
2018-07-25T10:36:50.469Z,29.8
2018-07-25T10:38:50.996Z,29.8
2018-07-25T10:40:50.393Z,29.9
2018-07-25T10:42:50.756Z,30.0
2018-07-25T10:44:50.091Z,30.0
2018-07-25T10:46:52.385Z,30.1
2018-07-25T10:48:51.237Z,30.1
2018-07-25T10:50:50.709Z,30.1
2018-07-25T10:52:50.886Z,30.2
2018-07-25T10:54:53.074Z,30.2
2018-07-25T10:56:50.687Z,30.2
2018-07-25T10:58:49.927Z,30.2
2018-07-25T11:00:50.222Z,30.3
2018-07-25T11:02:50.646Z,30.3
2018-07-25T11:04:50.557Z,30.4
2018-07-25T11:06:50.103Z,30.4
2018-07-25T11:08:50.418Z,30.4
2018-07-25T11:10:50.669Z,30.5
2018-07-25T11:12:50.227Z,30.6
2018-07-25T11:14:50.448Z,30.6
2018-07-25T11:16:49.931Z,30.6
2018-07-25T11:18:50.232Z,30.6
2018-07-25T11:20:50.506Z,30.7
2018-07-25T11:22:50.637Z,30.7
2018-07-25T11:24:50.032Z,30.8
2018-07-25T11:26:50.617Z,30.8
2018-07-25T11:28:49.897Z,30.8
2018-07-25T11:30:50.075Z,30.8
2018-07-25T11:32:51.073Z,30.8
2018-07-25T11:34:50.692Z,30.8
2018-07-25T11:36:50.275Z,30.9
2018-07-25T11:38:50.514Z,30.9
2018-07-25T11:40:50.716Z,31.0
2018-07-25T11:42:49.908Z,31.1
2018-07-25T11:44:50.181Z,31.1
2018-07-25T11:46:49.986Z,31.2
2018-07-25T11:48:50.165Z,31.2
2018-07-25T11:50:50.364Z,31.3
2018-07-25T11:52:50.636Z,31.3
2018-07-25T11:54:49.890Z,31.3
2018-07-25T11:56:50.343Z,31.3
2018-07-25T11:58:50.627Z,31.2
2018-07-25T12:00:50.150Z,31.3
2018-07-25T12:02:50.341Z,31.4
2018-07-25T12:04:49.930Z,31.4
2018-07-25T12:06:50.566Z,31.4
2018-07-25T12:08:50.143Z,31.4
2018-07-25T12:10:50.547Z,31.4
2018-07-25T12:12:50.480Z,31.4
2018-07-25T12:14:50.216Z,31.4
2018-07-25T12:16:50.737Z,31.5
2018-07-25T12:18:50.078Z,31.6
2018-07-25T12:20:50.496Z,31.6
2018-07-25T12:22:50.088Z,31.7
2018-07-25T12:24:50.560Z,31.7
2018-07-25T12:26:51.655Z,31.8
2018-07-25T12:28:50.221Z,31.8
2018-07-25T12:30:50.620Z,31.8
2018-07-25T12:32:50.067Z,31.9
2018-07-25T12:34:50.867Z,32.0
2018-07-25T12:36:51.593Z,32.0
2018-07-25T12:38:50.074Z,32.0
2018-07-25T12:40:50.485Z,32.0
2018-07-25T12:42:50.438Z,32.0
2018-07-25T12:44:50.861Z,32.0
2018-07-25T12:46:50.623Z,31.9
2018-07-25T12:48:52.451Z,31.9
2018-07-25T12:50:50.223Z,31.9
2018-07-25T12:52:50.516Z,32.0
2018-07-25T12:54:50.053Z,32.0
2018-07-25T12:56:50.720Z,32.0
2018-07-25T12:58:50.324Z,32.1
2018-07-25T13:00:50.859Z,32.1
2018-07-25T13:02:51.161Z,32.1
2018-07-25T13:04:50.065Z,32.1
2018-07-25T13:06:50.708Z,32.2
2018-07-25T13:08:50.178Z,32.2
2018-07-25T13:10:51.971Z,32.2
2018-07-25T13:12:50.363Z,32.2
2018-07-25T13:14:50.917Z,32.3
2018-07-25T13:16:50.580Z,32.3
2018-07-25T13:18:53.542Z,32.3
2018-07-25T13:20:50.936Z,32.4
2018-07-25T13:22:51.237Z,32.4
2018-07-25T13:24:50.598Z,32.4
2018-07-25T13:26:50.178Z,32.4
2018-07-25T13:28:51.349Z,32.4
2018-07-25T13:30:50.726Z,32.5
2018-07-25T13:32:50.116Z,32.5
2018-07-25T13:34:50.783Z,32.6
2018-07-25T13:36:50.518Z,32.6
2018-07-25T13:38:49.968Z,32.7
2018-07-25T13:40:52.657Z,32.8
2018-07-25T13:42:50.941Z,32.8
2018-07-25T13:44:50.576Z,32.9
2018-07-25T13:46:50.268Z,32.9
2018-07-25T13:48:52.796Z,32.9
2018-07-25T13:50:50.356Z,32.8
2018-07-25T13:52:50.654Z,32.8
2018-07-25T13:54:50.895Z,32.8
2018-07-25T13:56:50.503Z,32.8
2018-07-25T13:58:50.793Z,32.8
2018-07-25T14:00:50.131Z,32.8
2018-07-25T14:02:51.798Z,32.8
2018-07-25T14:04:50.464Z,32.9
2018-07-25T14:06:49.947Z,32.9
2018-07-25T14:08:50.392Z,32.9
2018-07-25T14:10:53.282Z,33.0
2018-07-25T14:12:50.693Z,33.0
2018-07-25T14:14:50.274Z,33.1
2018-07-25T14:16:50.805Z,33.0
2018-07-25T14:18:50.116Z,33.0
2018-07-25T14:20:50.587Z,33.1
2018-07-25T14:22:50.126Z,33.1
2018-07-25T14:24:50.435Z,33.2
2018-07-25T14:26:50.829Z,33.2
2018-07-25T14:28:51.194Z,33.2
2018-07-25T14:30:50.795Z,33.2
2018-07-25T14:32:52.767Z,33.4
2018-07-25T14:34:51.481Z,33.4
2018-07-25T14:36:50.410Z,33.4
2018-07-25T14:38:50.825Z,33.4
2018-07-25T14:40:50.147Z,33.4
2018-07-25T14:42:50.500Z,33.4
2018-07-25T14:44:51.005Z,33.4
2018-07-25T14:46:51.543Z,33.4
2018-07-25T14:48:49.982Z,33.4
2018-07-25T14:50:50.500Z,33.4
2018-07-25T14:52:50.908Z,33.4
2018-07-25T14:54:52.981Z,33.4
2018-07-25T14:56:50.820Z,33.4
2018-07-25T14:58:50.449Z,33.5
2018-07-25T15:00:50.693Z,33.5
2018-07-25T15:02:50.904Z,33.5
2018-07-25T15:04:49.964Z,33.4
2018-07-25T15:06:50.496Z,33.4
2018-07-25T15:08:50.606Z,33.4
2018-07-25T15:10:50.952Z,33.4
2018-07-25T15:12:50.387Z,33.4
2018-07-25T15:14:50.255Z,33.5
2018-07-25T15:16:53.624Z,33.4
2018-07-25T15:18:50.216Z,33.4
2018-07-25T15:20:50.564Z,33.4
2018-07-25T15:22:51.543Z,33.4
2018-07-25T15:24:50.084Z,33.4
2018-07-25T15:26:50.726Z,33.4
2018-07-25T15:28:50.018Z,33.4
2018-07-25T15:30:52.602Z,33.4
2018-07-25T15:32:50.132Z,33.4
2018-07-25T15:34:50.972Z,33.4
2018-07-25T15:36:50.696Z,33.4
2018-07-25T15:38:51.241Z,33.4
2018-07-25T15:40:50.741Z,33.4
2018-07-25T15:42:50.192Z,33.4
2018-07-25T15:44:53.278Z,33.4
2018-07-25T15:46:50.954Z,33.4
2018-07-25T15:48:50.545Z,33.4
2018-07-25T15:50:50.927Z,33.4
2018-07-25T15:52:50.959Z,33.4
2018-07-25T15:54:50.580Z,33.4
2018-07-25T15:56:50.248Z,33.4
2018-07-25T15:58:50.772Z,33.4
2018-07-25T16:00:50.111Z,33.4
2018-07-25T16:02:50.536Z,33.4
2018-07-25T16:04:50.291Z,33.4
2018-07-25T16:06:51.876Z,33.4
2018-07-25T16:08:50.377Z,33.4
2018-07-25T16:10:51.077Z,33.4
2018-07-25T16:12:50.644Z,33.4
2018-07-25T16:14:52.956Z,33.4
2018-07-25T16:16:50.392Z,33.5
2018-07-25T16:18:50.771Z,33.5
2018-07-25T16:20:50.352Z,33.5
2018-07-25T16:22:50.718Z,33.5
2018-07-25T16:24:50.052Z,33.6
2018-07-25T16:26:50.741Z,33.6
2018-07-25T16:28:50.201Z,33.6
2018-07-25T16:30:50.649Z,33.6
2018-07-25T16:32:50.178Z,33.6
2018-07-25T16:34:50.860Z,33.6
2018-07-25T16:36:52.511Z,33.7
2018-07-25T16:38:50.369Z,33.7
2018-07-25T16:40:50.752Z,33.7
2018-07-25T16:42:50.082Z,33.8
2018-07-25T16:44:50.440Z,33.8
2018-07-25T16:46:50.405Z,33.8
2018-07-25T16:48:50.861Z,33.8
2018-07-25T16:50:50.147Z,33.8
2018-07-25T16:52:50.618Z,33.8
2018-07-25T16:54:50.003Z,33.9
2018-07-25T16:56:51.265Z,33.8
2018-07-25T16:58:51.004Z,33.8
2018-07-25T17:00:50.521Z,33.8
2018-07-25T17:02:50.769Z,33.8
2018-07-25T17:04:50.641Z,33.8
2018-07-25T17:06:52.739Z,33.8
2018-07-25T17:08:50.880Z,33.8
2018-07-25T17:10:50.225Z,33.8
2018-07-25T17:12:50.559Z,33.8
2018-07-25T17:14:50.062Z,33.63
2018-07-25T17:16:50.637Z,33.50
2018-07-25T17:18:50.985Z,33.13
2018-07-25T17:20:50.491Z,32.92
2018-07-25T17:22:50.211Z,32.82
2018-07-25T17:24:50.590Z,32.66
2018-07-25T17:26:50.581Z,32.38
2018-07-25T17:28:52.901Z,32.21
2018-07-25T17:30:50.244Z,32.08
2018-07-25T17:32:50.692Z,32.02
2018-07-25T17:34:50.586Z,31.96
2018-07-25T17:36:50.417Z,31.91
2018-07-25T17:38:50.800Z,31.80
2018-07-25T17:40:50.670Z,31.69
2018-07-25T17:42:52.036Z,31.64
2018-07-25T17:44:50.372Z,31.53
2018-07-25T17:46:50.670Z,31.48
2018-07-25T17:48:50.267Z,31.43
2018-07-25T17:50:53.609Z,31.34
2018-07-25T17:52:51.284Z,31.24
2018-07-25T17:54:50.845Z,31.21
2018-07-25T17:56:50.882Z,31.12
2018-07-25T17:58:50.432Z,31.04
2018-07-25T18:00:50.944Z,31.00
2018-07-25T18:02:50.343Z,30.94
2018-07-25T18:04:52.091Z,30.91
2018-07-25T18:06:50.739Z,30.81
2018-07-25T18:08:50.050Z,30.73
2018-07-25T18:10:50.477Z,30.72
2018-07-25T18:12:53.468Z,30.67
2018-07-25T18:14:50.987Z,30.59
2018-07-25T18:16:50.564Z,30.54
2018-07-25T18:18:49.973Z,30.50
2018-07-25T18:20:50.412Z,30.42
2018-07-25T18:22:51.528Z,30.36
2018-07-25T18:24:50.164Z,30.24
2018-07-25T18:26:53.452Z,30.18
2018-07-25T18:28:50.923Z,30.13
2018-07-25T18:30:50.355Z,30.06
2018-07-25T18:32:50.969Z,29.95
2018-07-25T18:34:50.760Z,29.91
2018-07-25T18:36:50.568Z,29.81
2018-07-25T18:38:51.080Z,29.77
2018-07-25T18:40:53.371Z,29.66
2018-07-25T18:42:50.556Z,29.61
2018-07-25T18:44:50.090Z,29.51
2018-07-25T18:46:50.527Z,29.51
2018-07-25T18:48:50.067Z,29.31
2018-07-25T18:50:50.456Z,29.27
2018-07-25T18:52:50.782Z,29.14
2018-07-25T18:54:50.110Z,29.01
2018-07-25T18:56:50.519Z,28.93
2018-07-25T18:58:50.770Z,28.77
2018-07-25T19:00:50.005Z,28.67
2018-07-25T19:02:50.407Z,28.51
2018-07-25T19:04:49.992Z,28.40
2018-07-25T19:06:50.467Z,28.25
2018-07-25T19:08:50.842Z,28.20
2018-07-25T19:10:50.163Z,28.02
2018-07-25T19:12:50.343Z,27.88
2018-07-25T19:14:50.551Z,27.79
2018-07-25T19:16:50.597Z,27.65
2018-07-25T19:18:50.035Z,27.56
2018-07-25T19:20:50.236Z,27.48
2018-07-25T19:22:50.582Z,27.42
2018-07-25T19:24:50.821Z,27.34
2018-07-25T19:26:50.353Z,27.27
2018-07-25T19:28:50.571Z,27.22
2018-07-25T19:30:49.941Z,27.21
2018-07-25T19:32:50.219Z,27.13
2018-07-25T19:34:50.776Z,27.07
2018-07-25T19:36:50.399Z,27.01
2018-07-25T19:38:50.583Z,26.94
2018-07-25T19:40:50.684Z,26.89
2018-07-25T19:42:49.987Z,26.83
2018-07-25T19:44:50.241Z,26.72
2018-07-25T19:46:50.671Z,26.62
2018-07-25T19:48:49.944Z,26.56
2018-07-25T19:50:50.231Z,26.48
2018-07-25T19:52:50.489Z,26.42
2018-07-25T19:54:50.659Z,26.39
2018-07-25T19:56:50.158Z,26.35
2018-07-25T19:58:50.459Z,26.27
2018-07-25T20:00:51.101Z,26.23
2018-07-25T20:02:50.460Z,26.14
2018-07-25T20:04:50.284Z,26.06
2018-07-25T20:06:50.780Z,26.02
2018-07-25T20:08:50.211Z,25.97
2018-07-25T20:10:50.534Z,25.92
2018-07-25T20:12:50.816Z,25.85
2018-07-25T20:14:50.002Z,25.77
2018-07-25T20:16:51.363Z,25.68
2018-07-25T20:18:50.749Z,25.62
2018-07-25T20:20:49.933Z,25.59
2018-07-25T20:22:50.415Z,25.51
2018-07-25T20:24:50.696Z,25.41
2018-07-25T20:26:50.089Z,25.37
2018-07-25T20:28:50.306Z,25.29
2018-07-25T20:30:50.699Z,25.30
2018-07-25T20:32:50.066Z,25.23
2018-07-25T20:34:50.662Z,25.16
2018-07-25T20:36:50.099Z,25.10
2018-07-25T20:38:50.431Z,25.02
2018-07-25T20:40:50.641Z,24.97
2018-07-25T20:42:50.724Z,24.89
2018-07-25T20:44:50.111Z,24.82
2018-07-25T20:46:50.605Z,24.76
2018-07-25T20:48:49.909Z,24.76
2018-07-25T20:50:50.119Z,24.62
2018-07-25T20:52:50.449Z,24.57
2018-07-25T20:54:50.760Z,24.48
2018-07-25T20:56:50.098Z,24.46
2018-07-25T20:58:50.426Z,24.41
2018-07-25T21:00:51.227Z,24.36
2018-07-25T21:02:50.476Z,24.35
2018-07-25T21:04:50.188Z,24.28
2018-07-25T21:06:50.576Z,24.21
2018-07-25T21:08:50.780Z,24.21
2018-07-25T21:10:49.956Z,23.99
2018-07-25T21:12:50.422Z,23.83
2018-07-25T21:14:50.696Z,23.71
2018-07-25T21:16:49.848Z,23.63
2018-07-25T21:18:50.051Z,23.56
2018-07-25T21:20:50.327Z,23.56
2018-07-25T21:22:50.573Z,23.36
2018-07-25T21:24:49.895Z,23.29
2018-07-25T21:26:50.350Z,23.25
2018-07-25T21:28:50.517Z,23.20
2018-07-25T21:30:50.790Z,23.18
2018-07-25T21:32:50.246Z,23.11
2018-07-25T21:34:50.067Z,23.07
2018-07-25T21:36:50.365Z,23.04
2018-07-25T21:38:50.682Z,22.98
2018-07-25T21:40:49.912Z,22.94
2018-07-25T21:42:50.125Z,22.85
2018-07-25T21:44:50.442Z,22.80
2018-07-25T21:46:49.961Z,22.70
2018-07-25T21:48:50.143Z,22.61
2018-07-25T21:50:50.747Z,22.57
2018-07-25T21:52:50.162Z,22.48
2018-07-25T21:54:50.323Z,22.45
2018-07-25T21:56:50.778Z,22.37
2018-07-25T21:58:50.085Z,22.30
2018-07-25T22:00:50.613Z,22.25
2018-07-25T22:02:50.851Z,22.22
2018-07-25T22:04:50.593Z,22.16
2018-07-25T22:06:50.173Z,22.12
2018-07-25T22:08:50.623Z,22.07
2018-07-25T22:10:50.753Z,22.07
2018-07-25T22:12:50.045Z,21.97
2018-07-25T22:14:50.280Z,21.93
2018-07-25T22:16:50.633Z,21.87
2018-07-25T22:18:50.850Z,21.77
2018-07-25T22:20:50.283Z,21.71
2018-07-25T22:22:50.607Z,21.65
2018-07-25T22:24:50.781Z,21.63
2018-07-25T22:26:50.315Z,21.60
2018-07-25T22:28:50.551Z,21.58
2018-07-25T22:30:50.819Z,21.52
2018-07-25T22:32:50.100Z,21.45
2018-07-25T22:34:50.655Z,21.43
2018-07-25T22:36:50.008Z,21.38
2018-07-25T22:38:50.177Z,21.35
2018-07-25T22:40:50.513Z,21.29
2018-07-25T22:42:50.809Z,21.25
2018-07-25T22:44:50.020Z,21.20
2018-07-25T22:46:50.491Z,21.18
2018-07-25T22:48:50.771Z,21.17
2018-07-25T22:50:50.181Z,21.16
2018-07-25T22:52:50.388Z,21.11
2018-07-25T22:54:50.615Z,21.08
2018-07-25T22:56:50.169Z,21.06
2018-07-25T22:58:50.344Z,21.00
2018-07-25T23:00:50.655Z,21.00
2018-07-25T23:02:50.054Z,20.92
2018-07-25T23:04:50.607Z,20.91
2018-07-25T23:06:50.160Z,20.86
2018-07-25T23:08:50.338Z,20.83
2018-07-25T23:10:50.624Z,20.81
2018-07-25T23:12:49.928Z,20.74
2018-07-25T23:14:50.145Z,20.69
2018-07-25T23:16:50.609Z,20.66
2018-07-25T23:18:50.794Z,20.61
2018-07-25T23:20:49.992Z,20.54
2018-07-25T23:22:50.233Z,20.51
2018-07-25T23:24:50.460Z,20.49
2018-07-25T23:26:50.865Z,20.46
2018-07-25T23:28:50.078Z,20.44
2018-07-25T23:30:50.279Z,20.42
2018-07-25T23:32:50.499Z,20.41
2018-07-25T23:34:50.081Z,20.36
2018-07-25T23:36:50.523Z,20.30
2018-07-25T23:38:49.922Z,20.30
2018-07-25T23:40:50.104Z,20.23
2018-07-25T23:42:50.401Z,20.20
2018-07-25T23:44:50.559Z,20.18
2018-07-25T23:46:50.221Z,20.14
2018-07-25T23:48:50.552Z,20.11
2018-07-25T23:50:49.956Z,20.07
2018-07-25T23:52:50.092Z,20.05
2018-07-25T23:54:50.201Z,20.04
2018-07-25T23:56:50.674Z,20.01
2018-07-25T23:58:49.878Z,19.95
